createdAt,value
2023-04-15T00:10:36.344Z,1013.0842047548743
2023-04-15T00:16:58.703Z,1013.086075175382
2023-04-15T00:23:19.747Z,1013.0796734050589
2023-04-15T00:29:54.253Z,1013.0433440860479
2023-04-15T00:38:31.313Z,1013.0059281399803
2023-04-15T00:55:01.117Z,1012.9229543075155
2023-04-15T01:01:24.076Z,1012.8499670186947
2023-04-15T01:17:29.846Z,1012.7431234746434
2023-04-15T01:23:52.311Z,1012.724248883509
2023-04-15T01:30:15.179Z,1012.712048010184
2023-04-15T01:38:24.416Z,1012.6374926385221
2023-04-15T01:44:45.922Z,1012.697113431853
2023-04-15T01:54:11.859Z,1012.6904314387225
2023-04-15T02:00:32.746Z,1012.6026826164592
2023-04-15T02:06:54.889Z,1012.6340395888806
2023-04-15T02:16:29.379Z,1012.667954418971
2023-04-15T02:22:52.061Z,1012.6545554100036
2023-04-15T02:29:14.964Z,1012.6224653662438
2023-04-15T02:35:35.043Z,1012.5897390972495
2023-04-15T02:41:57.509Z,1012.5973114971328
2023-04-15T02:48:21.323Z,1012.7002598902586
2023-04-15T02:54:48.521Z,1012.7307756846552
2023-04-15T03:01:10.177Z,1012.7165938606794
2023-04-15T03:08:58.332Z,1012.6900091992055
2023-04-15T03:15:20.931Z,1012.6786245703153
2023-04-15T03:21:42.003Z,1012.6697044182264
2023-04-15T03:33:42.270Z,1012.5525813311008
2023-04-15T03:40:03.818Z,1012.5691096035263
2023-04-15T03:46:26.311Z,1012.5572721645156
2023-04-15T03:52:51.405Z,1012.539695017952
2023-04-15T03:59:16.672Z,1012.5659126448778
2023-04-15T04:05:39.182Z,1012.554275233193
2023-04-15T04:18:19.300Z,1012.5757194433002
2023-04-15T04:24:40.241Z,1012.620942172168
2023-04-15T04:40:50.385Z,1012.6776975041128
2023-04-15T04:47:11.361Z,1012.679966577138
2023-04-15T04:53:32.074Z,1012.6448015764007
2023-04-15T04:59:55.924Z,1012.6550848967545
2023-04-15T05:12:50.037Z,1012.7715159917148
2023-04-15T05:22:53.832Z,1012.7631460015485
2023-04-15T05:44:00.617Z,1012.8845967755939
2023-04-15T05:53:20.551Z,1012.8898126452665
2023-04-15T05:59:48.639Z,1012.8964176523222
2023-04-15T06:13:10.896Z,1012.998321838052
2023-04-15T06:25:56.000Z,1013.0862290817969
2023-04-15T06:36:45.706Z,1013.2004528634669
2023-04-15T06:43:51.197Z,1013.2529093187711
2023-04-15T06:50:53.113Z,1013.2970578918289
2023-04-15T06:57:46.380Z,1013.3321530738091
2023-04-15T07:07:07.065Z,1013.386012851744
2023-04-15T07:13:28.497Z,1013.3598610826758
2023-04-15T07:19:50.288Z,1013.339663004167
2023-04-15T07:26:12.273Z,1013.2967090565712
2023-04-15T07:37:40.581Z,1013.2572751472954
2023-04-15T07:44:02.694Z,1013.3599143341482
2023-04-15T07:50:27.402Z,1013.4432421716047
2023-04-15T07:56:51.265Z,1013.4546842839811
2023-04-15T08:03:13.628Z,1013.4396669693205
2023-04-15T08:09:36.282Z,1013.4243475766543
2023-04-15T08:21:41.407Z,1013.507412987951
2023-04-15T08:28:05.493Z,1013.4922517431985
2023-04-15T08:34:28.440Z,1013.5428686252216
2023-04-15T08:40:52.403Z,1013.5395209374827
2023-04-15T08:47:15.558Z,1013.5143630332586
2023-04-15T08:53:38.340Z,1013.507716310935
2023-04-15T09:00:04.824Z,1013.5721312388404
2023-04-15T09:06:31.480Z,1013.5839955813302
2023-04-15T09:17:52.040Z,1013.7892035244132
2023-04-15T09:26:03.149Z,1013.8534524075093
2023-04-15T09:32:28.629Z,1013.8852864068876
2023-04-15T09:47:10.885Z,1014.060200721233
2023-04-15T10:00:29.175Z,1014.1225916561862
2023-04-15T10:06:49.758Z,1014.1417583647116
2023-04-15T10:13:10.117Z,1014.1547561679921
2023-04-15T10:19:31.624Z,1014.1367115773842
2023-04-15T10:25:58.667Z,1014.1399563897345
2023-04-15T10:32:19.630Z,1014.1900147293733
2023-04-15T10:38:40.856Z,1014.2324227919459
2023-04-15T10:53:23.084Z,1014.2463952386363
2023-04-15T10:59:44.416Z,1014.294416328395
2023-04-15T11:06:05.606Z,1014.376770518175
2023-04-15T11:20:04.803Z,1014.3822591591293
2023-04-15T11:26:25.624Z,1014.4321561481846
2023-04-15T11:32:47.125Z,1014.5263855108808
2023-04-15T11:45:22.814Z,1014.6734632438987
2023-04-15T11:51:43.809Z,1014.721660635871
2023-04-15T11:58:05.198Z,1014.7876705030843
2023-04-15T12:04:26.322Z,1014.8746927425664
2023-04-15T12:10:47.824Z,1014.9412731790233
2023-04-15T12:17:09.478Z,1015.0134182522845
2023-04-15T12:23:30.473Z,1015.0636553469285
2023-04-15T12:35:07.331Z,1015.1954297182833
2023-04-15T12:41:28.847Z,1015.2635110063437
2023-04-15T12:47:50.430Z,1015.3703850139494
2023-04-15T12:59:14.657Z,1015.5139750839545
2023-04-15T13:10:04.312Z,1015.6038574794577
2023-04-15T13:16:26.668Z,1015.6366744555105
2023-04-15T13:22:48.775Z,1015.6091300108475
2023-04-15T13:29:10.639Z,1015.5827037370477
2023-04-15T13:40:42.612Z,1015.5346112101421
2023-04-15T14:02:59.443Z,1015.7134418527477
2023-04-15T14:09:21.352Z,1015.7802486345626
2023-04-15T14:15:43.242Z,1015.8453346968529
2023-04-15T14:24:29.762Z,1015.8775056446626
2023-04-15T14:30:51.511Z,1015.8972812153936
2023-04-15T14:39:47.648Z,1015.9300690050319
2023-04-15T14:46:13.230Z,1015.9647016253554
2023-04-15T14:52:40.288Z,1016.0457150476432
2023-04-15T14:59:09.621Z,1016.0871049540774
2023-04-15T15:12:14.905Z,1016.1021330368609
2023-04-15T15:18:40.900Z,1016.1842221810983
2023-04-15T15:29:53.638Z,1016.2995371252687
2023-04-15T15:36:16.333Z,1016.399533896994
2023-04-15T15:42:38.752Z,1016.4782262203937
2023-04-15T15:49:04.108Z,1016.5306188257915
2023-04-15T15:55:27.896Z,1016.5786009129856
2023-04-15T16:01:50.878Z,1016.6533308630228
2023-04-15T16:08:13.499Z,1016.7514122355325
2023-04-15T16:14:36.926Z,1016.8565354890899
2023-04-15T16:21:03.628Z,1016.9656841202758
2023-04-15T16:28:26.470Z,1017.0056939148924
2023-04-15T16:38:09.113Z,1017.0373195691407
2023-04-15T16:45:42.541Z,1017.1172245938933
2023-04-15T16:58:00.946Z,1017.2469079096476
2023-04-15T17:06:53.915Z,1017.3573029246351
2023-04-15T17:14:00.979Z,1017.4565722391163
2023-04-15T17:20:32.658Z,1017.493163716414
2023-04-15T17:27:02.640Z,1017.5571925641464
2023-04-15T17:34:01.059Z,1017.614317752184
2023-04-15T17:40:28.965Z,1017.6696621936931
2023-04-15T17:47:08.819Z,1017.7711095588272
2023-04-15T18:02:03.099Z,1017.9711615878803
2023-04-15T18:08:26.297Z,1018.0670159924573
2023-04-15T18:14:55.079Z,1018.1390725862901
2023-04-15T18:21:21.667Z,1018.1937147015069
2023-04-15T18:29:01.969Z,1018.3092375640963
2023-04-15T18:35:30.165Z,1018.4367022555796
2023-04-15T18:45:51.553Z,1018.6510915162573
2023-04-15T18:52:16.135Z,1018.7842538123803
2023-04-15T18:59:10.248Z,1018.91003520756
2023-04-15T19:05:57.315Z,1019.0134908492057
2023-04-15T19:12:21.690Z,1019.0585012818354
2023-04-15T19:18:48.404Z,1019.17749401684
2023-04-15T19:25:12.375Z,1019.2740080213547
2023-04-15T19:31:37.201Z,1019.3839187731473
2023-04-15T19:45:03.357Z,1019.5943339770723
2023-04-15T19:51:30.002Z,1019.6556162662133
2023-04-15T19:59:46.191Z,1019.6945483903755
2023-04-15T20:08:09.433Z,1019.733882461329
2023-04-15T20:15:19.484Z,1019.7221922707113
2023-04-15T20:21:47.723Z,1019.731083804022
2023-04-15T20:28:19.791Z,1019.7561250751259
2023-04-15T20:34:40.890Z,1019.8206844224883
2023-04-15T20:43:44.890Z,1019.8394024490046
2023-04-15T20:50:09.264Z,1019.8364810793868
2023-04-15T20:56:33.860Z,1019.9055419710037
2023-04-15T21:07:36.563Z,1020.0218590570457
2023-04-15T21:14:01.263Z,1020.055802209347
2023-04-15T21:20:24.922Z,1020.1108485106978
2023-04-15T21:26:46.461Z,1020.1485320162099
2023-04-15T21:39:12.507Z,1020.3703614552292
2023-04-15T21:45:35.370Z,1020.4488661630818
2023-04-15T21:51:55.371Z,1020.5205962534309
2023-04-15T21:58:15.370Z,1020.6073601833084
2023-04-15T22:04:35.564Z,1020.6473627444057
2023-04-15T22:15:41.654Z,1020.6753083138449
2023-04-15T22:24:52.691Z,1020.7508702584709
2023-04-15T22:31:11.873Z,1020.8039474948962
2023-04-15T22:38:12.958Z,1020.8306180726154
2023-04-15T22:46:28.073Z,1020.9170394629678
2023-04-15T22:52:48.417Z,1021.0097790817149
2023-04-15T23:01:25.531Z,1021.0638225301329
2023-04-15T23:07:44.815Z,1021.0955107704712
2023-04-15T23:14:04.658Z,1021.1727943388784
2023-04-15T23:20:25.207Z,1021.222732901322
2023-04-15T23:28:51.899Z,1021.3098952452127
2023-04-15T23:40:41.351Z,1021.3966055099577
2023-04-15T23:47:03.760Z,1021.4138371978754
2023-04-15T23:53:25.453Z,1021.429389255763
2023-04-15T23:59:49.359Z,1021.4853815841062
